createdAt,value
2024-04-18T00:02:19.365Z,94729.97
2024-04-18T00:05:21.378Z,94723.66
2024-04-18T00:08:23.402Z,94719.94
2024-04-18T00:11:25.503Z,94716.91
2024-04-18T00:14:27.464Z,94716.91
2024-04-18T00:17:32.079Z,94723.72
2024-04-18T00:20:34.103Z,94719.59
2024-04-18T00:23:36.099Z,94712.81
2024-04-18T00:26:38.091Z,94711.44
2024-04-18T00:29:40.063Z,94713.06
2024-04-18T00:32:44.650Z,94711.16
2024-04-18T00:35:46.567Z,94713.69
2024-04-18T00:38:48.549Z,94710.09
2024-04-18T00:41:50.430Z,94714.72
2024-04-18T00:44:52.332Z,94710.56
2024-04-18T00:47:57.061Z,94707.28
2024-04-18T00:51:02.429Z,94715.84
2024-04-18T00:54:04.969Z,94711.38
2024-04-18T00:57:06.920Z,94711.09
2024-04-18T01:00:09.852Z,94711.75
2024-04-18T01:03:14.712Z,94712.88
2024-04-18T01:06:16.783Z,94709.72
2024-04-18T01:09:19.169Z,94711.56
2024-04-18T01:12:21.141Z,94710.78
2024-04-18T01:15:23.309Z,94721.31
2024-04-18T01:18:28.047Z,94716.56
2024-04-18T01:21:30.410Z,94712.00
2024-04-18T01:24:32.898Z,94716.91
2024-04-18T01:27:37.705Z,94720.00
2024-04-18T01:30:40.046Z,94715.72
2024-04-18T01:33:42.241Z,94719.28
2024-04-18T01:36:44.453Z,94719.34
2024-04-18T01:39:46.828Z,94718.97
2024-04-18T01:42:51.542Z,94714.25
2024-04-18T01:45:53.707Z,94713.13
2024-04-18T01:48:55.887Z,94720.63
2024-04-18T01:51:57.987Z,94713.94
2024-04-18T01:55:01.091Z,94716.41
2024-04-18T01:58:05.821Z,94714.28
2024-04-18T02:01:07.889Z,94721.13
2024-04-18T02:04:10.109Z,94720.69
2024-04-18T02:07:12.175Z,94718.50
2024-04-18T02:10:14.210Z,94722.78
2024-04-18T02:13:18.876Z,94721.06
2024-04-18T02:16:21.057Z,94714.78
2024-04-18T02:19:23.152Z,94723.19
2024-04-18T02:22:25.268Z,94719.09
2024-04-18T02:25:27.370Z,94726.72
2024-04-18T02:28:32.913Z,94730.69
2024-04-18T02:31:35.189Z,94726.81
2024-04-18T02:34:37.323Z,94737.75
2024-04-18T02:37:40.259Z,94721.69
2024-04-18T02:40:42.270Z,94732.50
2024-04-18T02:43:47.012Z,94725.06
2024-04-18T02:46:49.243Z,94723.38
2024-04-18T02:49:51.285Z,94725.84
2024-04-18T02:52:53.338Z,94724.50
2024-04-18T02:55:55.632Z,94725.34
2024-04-18T02:59:00.305Z,94719.94
2024-04-18T03:02:02.334Z,94721.81
2024-04-18T03:05:04.948Z,94723.06
2024-04-18T03:08:07.407Z,94724.00
2024-04-18T03:11:09.460Z,94720.63
2024-04-18T03:14:14.165Z,94724.91
2024-04-18T03:17:16.359Z,94732.84
2024-04-18T03:20:18.494Z,94724.50
2024-04-18T03:23:20.470Z,94722.66
2024-04-18T03:26:22.595Z,94727.56
2024-04-18T03:29:27.251Z,94732.06
2024-04-18T03:32:29.417Z,94729.69
2024-04-18T03:35:31.604Z,94731.50
2024-04-18T03:38:33.697Z,94728.69
2024-04-18T03:41:36.802Z,94730.16
2024-04-18T03:44:41.549Z,94733.25
2024-04-18T03:47:43.896Z,94735.75
2024-04-18T03:50:46.011Z,94738.28
2024-04-18T03:53:47.989Z,94738.03
2024-04-18T03:56:50.050Z,94737.06
2024-04-18T03:59:54.867Z,94743.44
2024-04-18T04:02:56.913Z,94747.91
2024-04-18T04:05:58.953Z,94752.00
2024-04-18T04:09:01.240Z,94751.44
2024-04-18T04:12:03.426Z,94751.84
2024-04-18T04:15:09.046Z,94753.16
2024-04-18T04:18:11.132Z,94762.88
2024-04-18T04:21:13.450Z,94754.94
2024-04-18T04:24:15.773Z,94766.47
2024-04-18T04:27:17.859Z,94758.09
2024-04-18T04:30:22.592Z,94766.44
2024-04-18T04:33:28.085Z,94766.06
2024-04-18T04:36:30.141Z,94764.94
2024-04-18T04:39:32.331Z,94765.63
2024-04-18T04:42:34.690Z,94775.63
2024-04-18T04:45:39.537Z,94780.34
2024-04-18T04:48:41.786Z,94779.91
2024-04-18T04:51:43.988Z,94788.13
2024-04-18T04:54:46.193Z,94793.97
2024-04-18T04:57:48.439Z,94799.06
2024-04-18T05:00:53.634Z,94795.72
2024-04-18T05:03:55.834Z,94793.09
2024-04-18T05:06:57.970Z,94798.22
2024-04-18T05:09:59.978Z,94805.47
2024-04-18T05:13:02.248Z,94810.03
2024-04-18T05:16:07.351Z,94816.84
2024-04-18T05:19:09.500Z,94808.47
2024-04-18T05:22:11.509Z,94817.19
2024-04-18T05:25:14.164Z,94822.81
2024-04-18T05:28:16.375Z,94828.72
2024-04-18T05:31:21.087Z,94823.53
2024-04-18T05:34:23.139Z,94828.16
2024-04-18T05:37:25.224Z,94821.78
2024-04-18T05:40:27.415Z,94834.03
2024-04-18T05:43:31.780Z,94831.22
2024-04-18T05:46:37.330Z,94843.59
2024-04-18T05:49:39.423Z,94834.03
2024-04-18T05:52:41.476Z,94836.94
2024-04-18T05:55:43.588Z,94841.16
2024-04-18T05:58:45.916Z,94852.22
2024-04-18T06:01:50.695Z,94860.81
2024-04-18T06:04:52.908Z,94853.44
2024-04-18T06:07:55.006Z,94862.13
2024-04-18T06:10:57.047Z,94860.66
2024-04-18T06:13:59.192Z,94866.25
2024-04-18T06:17:04.092Z,94861.84
2024-04-18T06:20:07.631Z,94866.31
2024-04-18T06:23:10.032Z,94866.66
2024-04-18T06:26:12.137Z,94870.19
2024-04-18T06:29:14.260Z,94880.78
2024-04-18T06:32:18.927Z,94876.13
2024-04-18T06:35:21.604Z,94880.50
2024-04-18T06:38:23.658Z,94885.09
2024-04-18T06:41:25.702Z,94889.91
2024-04-18T06:44:28.053Z,94892.84
2024-04-18T06:47:32.813Z,94905.03
2024-04-18T06:50:35.016Z,94903.41
2024-04-18T06:53:37.085Z,94905.69
2024-04-18T06:56:39.127Z,94900.84
2024-04-18T06:59:41.261Z,94905.84
2024-04-18T07:02:46.292Z,94911.06
2024-04-18T07:05:48.323Z,94914.09
2024-04-18T07:08:51.564Z,94913.59
2024-04-18T07:11:53.586Z,94917.13
2024-04-18T07:14:55.743Z,94922.34
2024-04-18T07:18:00.673Z,94919.94
2024-04-18T07:21:02.988Z,94920.81
2024-04-18T07:24:05.475Z,94918.38
2024-04-18T07:27:07.492Z,94928.38
2024-04-18T07:30:09.943Z,94942.03
2024-04-18T07:33:14.874Z,94929.66
2024-04-18T07:36:17.054Z,94936.97
2024-04-18T07:39:19.105Z,94943.16
2024-04-18T07:42:21.391Z,94949.28
2024-04-18T07:45:23.670Z,94940.59
2024-04-18T07:48:28.564Z,94939.03
2024-04-18T07:51:30.741Z,94956.31
2024-04-18T07:54:32.830Z,94949.44
2024-04-18T07:57:35.638Z,94955.09
2024-04-18T08:00:39.387Z,94966.13
2024-04-18T08:03:52.158Z,94967.94
2024-04-18T08:07:07.902Z,94973.81
2024-04-18T08:10:15.867Z,94970.13
2024-04-18T08:13:27.043Z,94979.81
2024-04-18T08:16:32.236Z,94976.47
2024-04-18T08:19:36.986Z,94988.19
2024-04-18T08:22:39.124Z,94984.28
2024-04-18T08:25:41.250Z,94986.09
2024-04-18T08:28:43.500Z,94992.13
2024-04-18T08:31:45.512Z,94995.41
2024-04-18T08:34:50.453Z,95004.03
2024-04-18T08:37:52.499Z,94992.81
2024-04-18T08:40:58.702Z,94992.81
2024-04-18T08:44:05.881Z,94998.69
2024-04-18T08:47:09.997Z,95000.22
2024-04-18T08:50:16.563Z,95001.84
2024-04-18T08:53:18.730Z,94996.78
2024-04-18T08:56:23.705Z,95006.59
2024-04-18T08:59:25.751Z,95002.38
2024-04-18T09:02:27.858Z,95010.19
2024-04-18T09:05:33.705Z,94997.81
2024-04-18T09:08:35.837Z,95002.25
2024-04-18T09:11:37.987Z,95004.44
2024-04-18T09:14:40.137Z,95007.88
2024-04-18T09:17:42.228Z,95007.94
2024-04-18T09:20:47.272Z,95011.09
2024-04-18T09:23:49.323Z,95020.72
2024-04-18T09:26:51.518Z,95012.75
2024-04-18T09:29:53.775Z,95015.56
2024-04-18T09:32:57.602Z,95029.34
2024-04-18T09:36:02.838Z,95012.97
2024-04-18T09:39:06.976Z,95010.56
2024-04-18T09:42:14.167Z,95026.94
2024-04-18T09:45:20.668Z,95022.75
2024-04-18T09:48:23.892Z,95032.00
2024-04-18T09:51:29.471Z,95030.25
2024-04-18T09:54:31.698Z,95018.28
2024-04-18T09:57:35.582Z,95027.84
2024-04-18T10:00:39.556Z,95034.44
2024-04-18T10:03:42.230Z,95024.50
2024-04-18T10:06:49.898Z,95025.22
2024-04-18T10:09:54.076Z,95024.25
2024-04-18T10:12:56.771Z,95029.53
2024-04-18T10:16:07.700Z,95030.38
2024-04-18T10:19:10.873Z,95028.16
2024-04-18T10:22:23.846Z,95042.59
2024-04-18T10:25:39.248Z,95037.75
2024-04-18T10:28:41.322Z,95035.88
2024-04-18T10:31:43.417Z,95050.97
2024-04-18T10:34:45.931Z,95042.09
2024-04-18T10:37:53.492Z,95045.25
2024-04-18T10:41:01.207Z,95040.66
2024-04-18T10:44:03.444Z,95059.69
2024-04-18T10:47:05.886Z,95063.97
2024-04-18T10:50:09.514Z,95054.63
2024-04-18T10:53:14.423Z,95045.47
2024-04-18T10:56:16.660Z,95052.44
2024-04-18T10:59:18.979Z,95044.47
2024-04-18T11:02:21.353Z,95053.16
2024-04-18T11:05:23.522Z,95046.28
2024-04-18T11:08:31.987Z,95048.25
2024-04-18T11:11:36.560Z,95043.59
2024-04-18T11:14:38.623Z,95050.59
2024-04-18T11:17:40.750Z,95053.31
2024-04-18T11:20:43.410Z,95062.06
2024-04-18T11:23:51.855Z,95067.34
2024-04-18T11:26:54.064Z,95065.47
2024-04-18T11:29:56.054Z,95067.84
2024-04-18T11:32:58.664Z,95071.38
2024-04-18T11:36:01.018Z,95072.50
2024-04-18T11:39:07.141Z,95071.94
2024-04-18T11:42:09.476Z,95070.09
2024-04-18T11:45:11.718Z,95072.00
2024-04-18T11:48:13.900Z,95074.19
2024-04-18T11:51:16.034Z,95075.81
2024-04-18T11:54:20.841Z,95084.47
2024-04-18T11:57:23.283Z,95084.47
2024-04-18T12:00:25.346Z,95089.47
2024-04-18T12:03:27.497Z,95083.84
2024-04-18T12:06:30.061Z,95085.03
2024-04-18T12:09:34.936Z,95086.56
2024-04-18T12:12:37.210Z,95079.59
2024-04-18T12:15:39.338Z,95088.06
2024-04-18T12:18:41.587Z,95086.81
2024-04-18T12:21:43.653Z,95086.69
2024-04-18T12:24:48.589Z,95081.94
2024-04-18T12:27:50.816Z,95093.50
2024-04-18T12:30:53.192Z,95093.94
2024-04-18T12:33:55.289Z,95096.97
2024-04-18T12:36:57.524Z,95094.44
2024-04-18T12:40:02.312Z,95103.59
2024-04-18T12:43:04.716Z,95106.78
2024-04-18T12:46:15.031Z,95111.34
2024-04-18T12:49:24.162Z,95112.50
2024-04-18T12:52:26.448Z,95105.81
2024-04-18T12:55:31.298Z,95099.88
2024-04-18T12:58:33.431Z,95094.41
2024-04-18T13:01:35.517Z,95096.19
2024-04-18T13:04:37.721Z,95100.59
2024-04-18T13:07:40.735Z,95098.19
2024-04-18T13:13:47.430Z,95096.16
2024-04-18T13:16:49.559Z,95093.25
2024-04-18T13:19:51.892Z,95088.34
2024-04-18T13:22:54.276Z,95085.59
2024-04-18T13:25:59.157Z,95092.91
2024-04-18T13:29:01.321Z,95089.19
2024-04-18T13:32:03.596Z,95095.81
2024-04-18T13:35:06.572Z,95104.00
2024-04-18T13:38:08.710Z,95100.84
2024-04-18T13:41:13.477Z,95104.16
2024-04-18T13:44:15.715Z,95102.81
2024-04-18T13:47:17.783Z,95095.44
2024-04-18T13:50:20.023Z,95103.78
2024-04-18T13:53:22.369Z,95097.03
2024-04-18T13:56:27.635Z,95102.88
2024-04-18T13:59:29.843Z,95094.34
2024-04-18T14:02:31.912Z,95087.81
2024-04-18T14:05:34.088Z,95090.44
2024-04-18T14:08:36.329Z,95083.44
2024-04-18T14:11:41.276Z,95090.53
2024-04-18T14:14:43.512Z,95095.84
2024-04-18T14:17:45.638Z,95100.63
2024-04-18T14:20:48.316Z,95098.59
2024-04-18T14:23:50.576Z,95108.34
2024-04-18T14:26:55.301Z,95111.75
2024-04-18T14:29:57.490Z,95095.75
2024-04-18T14:32:59.611Z,95108.81
2024-04-18T14:36:01.864Z,95115.00
2024-04-18T14:39:04.199Z,95128.38
2024-04-18T14:42:09.057Z,95125.56
2024-04-18T14:45:11.573Z,95129.91
2024-04-18T14:48:13.703Z,95138.94
2024-04-18T14:51:15.806Z,95150.22
2024-04-18T14:54:17.963Z,95173.06
2024-04-18T14:57:22.929Z,95182.44
2024-04-18T15:00:25.862Z,95182.31
2024-04-18T15:03:28.258Z,95176.41
2024-04-18T15:06:30.498Z,95182.25
2024-04-18T15:09:32.972Z,95192.84
2024-04-18T15:12:37.844Z,95194.75
2024-04-18T15:15:42.372Z,95193.88
2024-04-18T15:18:44.740Z,95195.53
2024-04-18T15:21:47.069Z,95195.84
2024-04-18T15:24:49.238Z,95208.44
2024-04-18T15:27:54.087Z,95222.66
2024-04-18T15:30:56.541Z,95243.31
2024-04-18T15:33:58.890Z,95242.56
2024-04-18T15:37:01.115Z,95247.22
2024-04-18T15:40:03.840Z,95242.88
2024-04-18T15:43:08.699Z,95243.28
2024-04-18T15:46:10.970Z,95249.34
2024-04-18T15:49:14.685Z,95255.38
2024-04-18T15:52:16.895Z,95249.50
2024-04-18T15:55:22.180Z,95252.75
2024-04-18T15:58:27.771Z,95263.91
2024-04-18T16:01:29.968Z,95269.16
2024-04-18T16:04:32.480Z,95271.75
2024-04-18T16:07:34.775Z,95270.09
2024-04-18T16:10:37.130Z,95275.53
2024-04-18T16:13:42.062Z,95278.19
2024-04-18T16:16:44.272Z,95279.00
2024-04-18T16:19:48.323Z,95288.72
2024-04-18T16:22:50.437Z,95289.16
2024-04-18T16:25:52.755Z,95294.16
2024-04-18T16:28:57.537Z,95290.59
2024-04-18T16:31:59.667Z,95294.75
2024-04-18T16:35:01.667Z,95299.81
2024-04-18T16:38:04.061Z,95307.84
2024-04-18T16:41:06.202Z,95311.91
2024-04-18T16:44:11.148Z,95310.41
2024-04-18T16:47:13.186Z,95312.03
2024-04-18T16:50:15.748Z,95308.34
2024-04-18T16:53:17.918Z,95317.41
2024-04-18T16:56:20.222Z,95315.59
2024-04-18T16:59:25.038Z,95317.16
2024-04-18T17:02:27.080Z,95310.56
2024-04-18T17:05:29.307Z,95314.69
2024-04-18T17:08:32.258Z,95324.31
2024-04-18T17:11:34.722Z,95319.50
2024-04-18T17:14:39.846Z,95322.16
2024-04-18T17:17:42.036Z,95330.09
2024-04-18T17:20:44.076Z,95325.97
2024-04-18T17:23:46.109Z,95326.66
2024-04-18T17:26:48.221Z,95327.25
2024-04-18T17:29:53.560Z,95336.91
2024-04-18T17:32:55.758Z,95344.25
2024-04-18T17:35:57.871Z,95349.25
2024-04-18T17:39:00.193Z,95347.69
2024-04-18T17:42:02.465Z,95356.59
2024-04-18T17:45:07.883Z,95359.69
2024-04-18T17:48:10.033Z,95357.44
2024-04-18T17:51:12.116Z,95370.06
2024-04-18T17:54:14.227Z,95368.59
2024-04-18T17:57:16.446Z,95375.13
2024-04-18T18:00:21.339Z,95377.47
2024-04-18T18:03:23.506Z,95381.00
2024-04-18T18:06:25.653Z,95385.75
2024-04-18T18:09:27.911Z,95382.25
2024-04-18T18:12:30.091Z,95390.69
2024-04-18T18:15:35.273Z,95400.63
2024-04-18T18:18:39.863Z,95390.44
2024-04-18T18:21:42.385Z,95402.34
2024-04-18T18:24:44.671Z,95406.47
2024-04-18T18:27:46.801Z,95415.53
2024-04-18T18:30:51.643Z,95410.78
2024-04-18T18:33:53.779Z,95420.28
2024-04-18T18:36:56.032Z,95414.56
2024-04-18T18:39:58.116Z,95423.03
2024-04-18T18:43:00.183Z,95421.91
2024-04-18T18:46:05.130Z,95433.38
2024-04-18T18:49:07.328Z,95435.88
2024-04-18T18:52:09.450Z,95442.81
2024-04-18T18:55:11.546Z,95447.97
2024-04-18T18:58:13.836Z,95454.44
2024-04-18T19:01:18.655Z,95459.34
2024-04-18T19:04:20.917Z,95453.31
2024-04-18T19:07:23.150Z,95454.09
2024-04-18T19:10:25.189Z,95461.84
2024-04-18T19:13:27.299Z,95459.19
2024-04-18T19:16:32.325Z,95459.09
2024-04-18T19:19:34.578Z,95466.28
2024-04-18T19:22:36.753Z,95468.97
2024-04-18T19:25:41.758Z,95465.28
2024-04-18T19:28:44.501Z,95460.22
2024-04-18T19:31:49.293Z,95475.03
2024-04-18T19:34:51.461Z,95481.31
2024-04-18T19:37:54.090Z,95476.41
2024-04-18T19:40:57.143Z,95471.69
2024-04-18T19:44:00.257Z,95473.69
2024-04-18T19:47:05.712Z,95478.22
2024-04-18T19:50:09.609Z,95483.38
2024-04-18T19:53:12.475Z,95479.19
2024-04-18T19:56:15.996Z,95481.31
2024-04-18T19:59:18.337Z,95471.25
2024-04-18T20:02:23.037Z,95475.50
2024-04-18T20:05:25.331Z,95479.19
2024-04-18T20:08:27.419Z,95482.88
2024-04-18T20:11:29.693Z,95484.28
2024-04-18T20:14:31.685Z,95485.28
2024-04-18T20:17:36.508Z,95494.66
2024-04-18T20:20:38.567Z,95487.31
2024-04-18T20:23:40.564Z,95488.53
2024-04-18T20:26:42.609Z,95494.19
2024-04-18T20:29:44.712Z,95489.19
2024-04-18T20:32:49.454Z,95490.19
2024-04-18T20:35:51.976Z,95493.66
2024-04-18T20:38:54.018Z,95492.66
2024-04-18T20:41:56.215Z,95490.66
2024-04-18T20:44:58.330Z,95498.44
2024-04-18T20:48:03.248Z,95492.22
2024-04-18T20:51:05.661Z,95484.19
2024-04-18T20:54:07.764Z,95485.53
2024-04-18T20:57:09.821Z,95490.75
2024-04-18T21:00:13.366Z,95494.66
2024-04-18T21:03:18.387Z,95492.75
2024-04-18T21:06:20.638Z,95494.31
2024-04-18T21:09:22.855Z,95486.63
2024-04-18T21:12:25.183Z,95495.44
2024-04-18T21:15:27.336Z,95488.66
2024-04-18T21:18:32.147Z,95496.31
2024-04-18T21:21:34.344Z,95494.88
2024-04-18T21:24:36.568Z,95485.44
2024-04-18T21:27:38.690Z,95493.88
2024-04-18T21:30:41.173Z,95496.44
2024-04-18T21:33:46.109Z,95497.31
2024-04-18T21:36:48.327Z,95497.31
2024-04-18T21:39:50.446Z,95501.09
2024-04-18T21:42:52.553Z,95501.56
2024-04-18T21:45:54.545Z,95508.13
2024-04-18T21:48:59.376Z,95500.66
2024-04-18T21:52:01.552Z,95503.56
2024-04-18T21:55:03.987Z,95507.56
2024-04-18T21:58:06.011Z,95513.66
2024-04-18T22:01:08.306Z,95520.91
2024-04-18T22:04:13.402Z,95520.16
2024-04-18T22:07:15.691Z,95521.25
2024-04-18T22:10:17.899Z,95519.16
2024-04-18T22:13:20.018Z,95523.81
2024-04-18T22:16:22.124Z,95522.03
2024-04-18T22:19:26.993Z,95518.59
2024-04-18T22:22:29.132Z,95512.25
2024-04-18T22:25:31.390Z,95518.47
2024-04-18T22:28:33.482Z,95514.91
2024-04-18T22:31:35.770Z,95516.34
2024-04-18T22:34:40.611Z,95524.94
2024-04-18T22:37:42.849Z,95532.72
2024-04-18T22:40:45.000Z,95533.28
2024-04-18T22:43:47.166Z,95523.81
2024-04-18T22:46:49.229Z,95531.94
2024-04-18T22:49:54.029Z,95525.13
2024-04-18T22:52:56.154Z,95523.03
2024-04-18T22:55:58.276Z,95523.91
2024-04-18T22:59:00.482Z,95528.69
2024-04-18T23:02:02.768Z,95523.34
2024-04-18T23:05:07.884Z,95523.13
2024-04-18T23:08:10.065Z,95527.56
2024-04-18T23:11:14.554Z,95528.00
2024-04-18T23:14:16.793Z,95534.56
2024-04-18T23:17:18.995Z,95531.00
2024-04-18T23:20:24.016Z,95537.13
2024-04-18T23:23:26.182Z,95536.00
2024-04-18T23:26:28.297Z,95528.13
2024-04-18T23:29:31.753Z,95517.09
2024-04-18T23:32:34.046Z,95511.75
2024-04-18T23:35:41.703Z,95505.53
2024-04-18T23:38:43.829Z,95508.97
2024-04-18T23:41:45.893Z,95523.78
2024-04-18T23:44:48.167Z,95503.59
2024-04-18T23:47:50.232Z,95496.41
2024-04-18T23:50:55.035Z,95500.19
2024-04-18T23:53:57.127Z,95502.03
2024-04-18T23:56:59.265Z,95498.84
